sensor_id;sensor_type;location;lat;lon;timestamp;temperature;humidity
3980;DHT22;2004;52.452;13.120;2023-04-03T00:04:16;1.70;98.20
3980;DHT22;2004;52.452;13.120;2023-04-03T00:12:07;1.60;98.00
3980;DHT22;2004;52.452;13.120;2023-04-03T00:19:57;1.60;97.90
3980;DHT22;2004;52.452;13.120;2023-04-03T00:27:48;1.60;97.50
3980;DHT22;2004;52.452;13.120;2023-04-03T00:35:38;1.60;97.80
3980;DHT22;2004;52.452;13.120;2023-04-03T00:43:29;1.60;97.80
3980;DHT22;2004;52.452;13.120;2023-04-03T00:51:23;1.60;98.00
3980;DHT22;2004;52.452;13.120;2023-04-03T00:59:21;1.50;97.30
3980;DHT22;2004;52.452;13.120;2023-04-03T01:07:26;1.50;97.50
3980;DHT22;2004;52.452;13.120;2023-04-03T01:15:23;1.50;97.50
3980;DHT22;2004;52.452;13.120;2023-04-03T01:31:32;1.40;98.20
3980;DHT22;2004;52.452;13.120;2023-04-03T01:39:23;1.30;98.80
3980;DHT22;2004;52.452;13.120;2023-04-03T01:47:14;1.30;98.90
3980;DHT22;2004;52.452;13.120;2023-04-03T01:55:05;1.30;99.20
3980;DHT22;2004;52.452;13.120;2023-04-03T02:02:56;1.20;99.40
3980;DHT22;2004;52.452;13.120;2023-04-03T02:10:48;1.10;99.70
3980;DHT22;2004;52.452;13.120;2023-04-03T02:18:40;1.00;99.90
3980;DHT22;2004;52.452;13.120;2023-04-03T02:26:30;0.80;99.90
3980;DHT22;2004;52.452;13.120;2023-04-03T02:34:21;0.70;99.90
3980;DHT22;2004;52.452;13.120;2023-04-03T02:42:12;0.70;99.90
3980;DHT22;2004;52.452;13.120;2023-04-03T02:50:02;0.60;99.90
3980;DHT22;2004;52.452;13.120;2023-04-03T02:57:53;0.50;99.90
3980;DHT22;2004;52.452;13.120;2023-04-03T03:05:43;0.40;99.90
3980;DHT22;2004;52.452;13.120;2023-04-03T03:13:35;0.40;99.90
3980;DHT22;2004;52.452;13.120;2023-04-03T03:21:25;0.30;99.90
3980;DHT22;2004;52.452;13.120;2023-04-03T03:29:16;0.20;99.90
3980;DHT22;2004;52.452;13.120;2023-04-03T03:37:06;0.10;99.90
3980;DHT22;2004;52.452;13.120;2023-04-03T03:44:57;0.10;99.90
3980;DHT22;2004;52.452;13.120;2023-04-03T03:52:47;0.00;99.90
3980;DHT22;2004;52.452;13.120;2023-04-03T04:00:38;0.00;99.90
3980;DHT22;2004;52.452;13.120;2023-04-03T04:08:29;-0.10;99.90
3980;DHT22;2004;52.452;13.120;2023-04-03T04:16:20;-0.10;99.90
3980;DHT22;2004;52.452;13.120;2023-04-03T04:24:11;-0.10;99.90
3980;DHT22;2004;52.452;13.120;2023-04-03T04:32:03;-0.20;99.90
3980;DHT22;2004;52.452;13.120;2023-04-03T04:39:54;-0.20;99.90
3980;DHT22;2004;52.452;13.120;2023-04-03T04:47:46;-0.20;99.90
3980;DHT22;2004;52.452;13.120;2023-04-03T04:55:36;-0.20;99.90
3980;DHT22;2004;52.452;13.120;2023-04-03T05:03:27;-0.20;99.90
3980;DHT22;2004;52.452;13.120;2023-04-03T05:11:17;-0.20;99.90
3980;DHT22;2004;52.452;13.120;2023-04-03T05:19:08;-0.20;99.90
3980;DHT22;2004;52.452;13.120;2023-04-03T05:26:59;-0.20;99.90
3980;DHT22;2004;52.452;13.120;2023-04-03T05:34:50;-0.20;99.90
3980;DHT22;2004;52.452;13.120;2023-04-03T05:42:41;-0.20;99.90
3980;DHT22;2004;52.452;13.120;2023-04-03T05:50:31;-0.10;99.90
3980;DHT22;2004;52.452;13.120;2023-04-03T05:58:23;-0.10;99.90
3980;DHT22;2004;52.452;13.120;2023-04-03T06:06:14;0.00;99.90
3980;DHT22;2004;52.452;13.120;2023-04-03T06:14:05;0.20;99.90
3980;DHT22;2004;52.452;13.120;2023-04-03T06:22:04;0.30;99.90
3980;DHT22;2004;52.452;13.120;2023-04-03T06:29:55;0.40;99.90
3980;DHT22;2004;52.452;13.120;2023-04-03T06:37:45;0.70;99.90
3980;DHT22;2004;52.452;13.120;2023-04-03T06:45:36;0.90;99.90
3980;DHT22;2004;52.452;13.120;2023-04-03T06:53:26;1.10;99.90
3980;DHT22;2004;52.452;13.120;2023-04-03T07:01:18;1.40;99.90
3980;DHT22;2004;52.452;13.120;2023-04-03T07:09:09;1.60;99.90
3980;DHT22;2004;52.452;13.120;2023-04-03T07:17:01;1.80;99.90
3980;DHT22;2004;52.452;13.120;2023-04-03T07:24:51;2.10;99.90
3980;DHT22;2004;52.452;13.120;2023-04-03T07:32:42;2.20;94.70
3980;DHT22;2004;52.452;13.120;2023-04-03T07:40:33;2.30;94.60
3980;DHT22;2004;52.452;13.120;2023-04-03T07:48:26;2.50;94.70
3980;DHT22;2004;52.452;13.120;2023-04-03T07:56:17;2.60;91.30
3980;DHT22;2004;52.452;13.120;2023-04-03T08:04:07;2.70;91.30
3980;DHT22;2004;52.452;13.120;2023-04-03T08:11:58;3.30;84.90
3980;DHT22;2004;52.452;13.120;2023-04-03T08:19:49;3.50;78.60
3980;DHT22;2004;52.452;13.120;2023-04-03T08:27:58;3.80;82.10
3980;DHT22;2004;52.452;13.120;2023-04-03T08:36:25;4.00;80.50
3980;DHT22;2004;52.452;13.120;2023-04-03T08:53:16;3.60;80.30
3980;DHT22;2004;52.452;13.120;2023-04-03T09:01:20;3.50;78.50
3980;DHT22;2004;52.452;13.120;2023-04-03T09:09:24;3.50;78.80
3980;DHT22;2004;52.452;13.120;2023-04-03T09:17:40;3.80;76.20
3980;DHT22;2004;52.452;13.120;2023-04-03T09:25:36;3.80;76.50
3980;DHT22;2004;52.452;13.120;2023-04-03T09:33:28;3.90;75.30
3980;DHT22;2004;52.452;13.120;2023-04-03T09:41:21;4.10;74.00
3980;DHT22;2004;52.452;13.120;2023-04-03T09:49:11;4.30;70.60
3980;DHT22;2004;52.452;13.120;2023-04-03T09:57:11;4.40;70.10
3980;DHT22;2004;52.452;13.120;2023-04-03T10:05:05;4.40;67.60
3980;DHT22;2004;52.452;13.120;2023-04-03T10:13:17;4.40;69.60
3980;DHT22;2004;52.452;13.120;2023-04-03T10:46:07;5.00;66.10
3980;DHT22;2004;52.452;13.120;2023-04-03T10:54:39;5.20;64.50
3980;DHT22;2004;52.452;13.120;2023-04-03T11:02:57;5.50;61.70
3980;DHT22;2004;52.452;13.120;2023-04-03T11:10:50;5.40;62.70
3980;DHT22;2004;52.452;13.120;2023-04-03T11:19:03;5.40;64.10
3980;DHT22;2004;52.452;13.120;2023-04-03T11:26:56;5.30;62.30
3980;DHT22;2004;52.452;13.120;2023-04-03T11:34:53;5.30;60.30
3980;DHT22;2004;52.452;13.120;2023-04-03T11:50:51;5.50;60.50
3980;DHT22;2004;52.452;13.120;2023-04-03T12:07:13;5.40;61.00
3980;DHT22;2004;52.452;13.120;2023-04-03T12:15:38;5.60;62.00
3980;DHT22;2004;52.452;13.120;2023-04-03T12:23:36;5.50;60.10
3980;DHT22;2004;52.452;13.120;2023-04-03T12:31:45;5.40;61.70
3980;DHT22;2004;52.452;13.120;2023-04-03T12:40:12;5.40;63.10
3980;DHT22;2004;52.452;13.120;2023-04-03T12:48:17;5.50;60.90
3980;DHT22;2004;52.452;13.120;2023-04-03T12:56:27;5.50;61.50
3980;DHT22;2004;52.452;13.120;2023-04-03T13:04:19;5.50;62.50
3980;DHT22;2004;52.452;13.120;2023-04-03T13:12:15;5.30;63.50
3980;DHT22;2004;52.452;13.120;2023-04-03T13:20:11;5.50;65.20
3980;DHT22;2004;52.452;13.120;2023-04-03T13:28:06;5.40;62.20
3980;DHT22;2004;52.452;13.120;2023-04-03T13:36:07;5.40;61.00
3980;DHT22;2004;52.452;13.120;2023-04-03T14:00:38;5.50;62.90
3980;DHT22;2004;52.452;13.120;2023-04-03T14:08:29;5.40;63.40
3980;DHT22;2004;52.452;13.120;2023-04-03T14:16:23;5.30;63.70
3980;DHT22;2004;52.452;13.120;2023-04-03T14:24:15;5.40;63.60
3980;DHT22;2004;52.452;13.120;2023-04-03T14:32:07;5.30;64.60
3980;DHT22;2004;52.452;13.120;2023-04-03T14:39:59;5.20;66.20
3980;DHT22;2004;52.452;13.120;2023-04-03T14:47:54;5.10;66.30
3980;DHT22;2004;52.452;13.120;2023-04-03T14:55:46;5.10;66.20
3980;DHT22;2004;52.452;13.120;2023-04-03T15:03:37;5.10;66.50
3980;DHT22;2004;52.452;13.120;2023-04-03T15:11:27;5.00;65.40
3980;DHT22;2004;52.452;13.120;2023-04-03T15:19:18;5.10;65.70
3980;DHT22;2004;52.452;13.120;2023-04-03T15:27:10;5.20;65.30
3980;DHT22;2004;52.452;13.120;2023-04-03T15:35:01;5.20;67.20
3980;DHT22;2004;52.452;13.120;2023-04-03T15:42:52;5.10;65.80
3980;DHT22;2004;52.452;13.120;2023-04-03T15:50:43;5.10;66.30
3980;DHT22;2004;52.452;13.120;2023-04-03T15:58:34;5.00;68.00
3980;DHT22;2004;52.452;13.120;2023-04-03T16:06:25;4.90;68.60
3980;DHT22;2004;52.452;13.120;2023-04-03T16:14:16;4.80;70.60
3980;DHT22;2004;52.452;13.120;2023-04-03T16:22:07;4.80;71.00
3980;DHT22;2004;52.452;13.120;2023-04-03T16:29:58;4.70;72.60
3980;DHT22;2004;52.452;13.120;2023-04-03T16:37:48;4.70;74.20
3980;DHT22;2004;52.452;13.120;2023-04-03T16:45:39;4.60;74.80
3980;DHT22;2004;52.452;13.120;2023-04-03T16:53:30;4.60;75.60
3980;DHT22;2004;52.452;13.120;2023-04-03T17:01:22;4.50;75.70
3980;DHT22;2004;52.452;13.120;2023-04-03T17:09:13;4.40;75.60
3980;DHT22;2004;52.452;13.120;2023-04-03T17:17:05;4.40;76.40
3980;DHT22;2004;52.452;13.120;2023-04-03T17:24:55;4.40;76.30
3980;DHT22;2004;52.452;13.120;2023-04-03T17:32:46;4.40;77.40
3980;DHT22;2004;52.452;13.120;2023-04-03T17:40:37;4.40;77.90
3980;DHT22;2004;52.452;13.120;2023-04-03T17:48:30;4.30;78.20
3980;DHT22;2004;52.452;13.120;2023-04-03T17:56:23;4.20;78.40
3980;DHT22;2004;52.452;13.120;2023-04-03T18:04:14;4.10;77.90
3980;DHT22;2004;52.452;13.120;2023-04-03T18:12:06;4.10;79.70
3980;DHT22;2004;52.452;13.120;2023-04-03T18:19:56;4.10;80.60
3980;DHT22;2004;52.452;13.120;2023-04-03T18:27:47;4.00;81.40
3980;DHT22;2004;52.452;13.120;2023-04-03T18:35:38;4.00;82.70
3980;DHT22;2004;52.452;13.120;2023-04-03T18:43:28;4.00;83.40
3980;DHT22;2004;52.452;13.120;2023-04-03T18:51:19;3.90;83.70
3980;DHT22;2004;52.452;13.120;2023-04-03T18:59:10;3.90;84.30
3980;DHT22;2004;52.452;13.120;2023-04-03T19:07:00;3.80;85.00
3980;DHT22;2004;52.452;13.120;2023-04-03T19:14:54;3.80;85.40
3980;DHT22;2004;52.452;13.120;2023-04-03T19:22:45;3.80;86.20
3980;DHT22;2004;52.452;13.120;2023-04-03T19:30:37;3.70;86.70
3980;DHT22;2004;52.452;13.120;2023-04-03T19:38:27;3.60;86.80
3980;DHT22;2004;52.452;13.120;2023-04-03T19:46:21;3.50;87.60
3980;DHT22;2004;52.452;13.120;2023-04-03T19:54:12;3.50;88.80
3980;DHT22;2004;52.452;13.120;2023-04-03T20:02:02;3.40;89.00
3980;DHT22;2004;52.452;13.120;2023-04-03T20:09:53;3.40;89.70
3980;DHT22;2004;52.452;13.120;2023-04-03T20:17:44;3.30;90.40
3980;DHT22;2004;52.452;13.120;2023-04-03T20:25:38;3.30;90.70
3980;DHT22;2004;52.452;13.120;2023-04-03T20:33:31;3.30;91.20
3980;DHT22;2004;52.452;13.120;2023-04-03T20:41:21;3.20;92.10
3980;DHT22;2004;52.452;13.120;2023-04-03T20:49:13;3.20;92.00
3980;DHT22;2004;52.452;13.120;2023-04-03T20:57:03;3.10;92.70
3980;DHT22;2004;52.452;13.120;2023-04-03T21:04:54;3.10;92.90
3980;DHT22;2004;52.452;13.120;2023-04-03T21:21:18;2.90;93.90
3980;DHT22;2004;52.452;13.120;2023-04-03T21:29:10;2.80;94.30
3980;DHT22;2004;52.452;13.120;2023-04-03T21:37:03;2.70;94.70
3980;DHT22;2004;52.452;13.120;2023-04-03T21:45:03;2.60;95.30
3980;DHT22;2004;52.452;13.120;2023-04-03T21:52:55;2.50;95.80
3980;DHT22;2004;52.452;13.120;2023-04-03T22:00:47;2.50;96.50
3980;DHT22;2004;52.452;13.120;2023-04-03T22:08:38;2.40;97.00
3980;DHT22;2004;52.452;13.120;2023-04-03T22:16:30;2.30;97.70
3980;DHT22;2004;52.452;13.120;2023-04-03T22:24:20;2.30;98.20
3980;DHT22;2004;52.452;13.120;2023-04-03T22:32:11;2.20;98.70
3980;DHT22;2004;52.452;13.120;2023-04-03T22:40:01;2.10;99.20
3980;DHT22;2004;52.452;13.120;2023-04-03T22:47:53;2.00;99.60
3980;DHT22;2004;52.452;13.120;2023-04-03T22:55:58;1.90;99.70
3980;DHT22;2004;52.452;13.120;2023-04-03T23:03:48;1.80;99.90
3980;DHT22;2004;52.452;13.120;2023-04-03T23:11:40;1.70;99.90
3980;DHT22;2004;52.452;13.120;2023-04-03T23:19:32;1.60;99.90
3980;DHT22;2004;52.452;13.120;2023-04-03T23:27:25;1.60;99.90
3980;DHT22;2004;52.452;13.120;2023-04-03T23:35:17;1.50;99.90
3980;DHT22;2004;52.452;13.120;2023-04-03T23:43:09;1.40;99.90
3980;DHT22;2004;52.452;13.120;2023-04-03T23:51:00;1.40;99.90
3980;DHT22;2004;52.452;13.120;2023-04-03T23:58:53;1.30;99.90
